• Join FlightAware (Why Join?)
  • Login
  • US Flag 
09:12PM EDT


 

Airport Tracker/Info


-or-


 

Live Flight TrackerFlight Track Log ✈ SWA1275 ✈ 10-Apr-2014 ✈ KPHX - KONT

Flight Track Log - Related Links

Times and Time Zones

All times are in EDT time to prevent confusion due to time zone crossing. See the SWA1275 flight status page for this flight to view local times or setup timezone preferences in your user account.

Time Position Orientation Groundspeed Altitude Reporting Facility
EDT Latitude Longitude Course Direction KTS MPH feet Rate Location/Type
09:10AM 33.4333 -112.0000 90° East 180 207 1,800  Level Phoenix TRACON
09:11AM 33.4333 -111.9500 90° East 204 235 4,300 3,180 Climbing Phoenix TRACON
09:12AM 33.4000 -111.9000 129° Southeast 221 254 8,600 3,720 Climbing Phoenix TRACON
09:13AM 33.3667 -111.9500 231° Southwest 269 310 11,400 3,480 Climbing Phoenix TRACON
09:14AM 33.3728 -112.0375 275° West 309 356 14,500 3,840 Climbing Albuquerque Center
09:15AM 33.3831 -112.1458 277° West 323 372 18,700 3,720 Climbing Albuquerque Center
09:16AM 33.3953 -112.2628 277° West 347 399 22,100 3,300 Climbing Albuquerque Center
09:17AM 33.4083 -112.3889 277° West 373 429 25,500 3,420 Climbing Albuquerque Center
09:18AM 33.4219 -112.5172 277° West 384 442 29,100 3,180 Climbing Albuquerque Center
09:19AM 33.4347 -112.6425 277° West 372 428 32,000 1,380 Climbing Albuquerque Center
09:20AM 33.4467 -112.7600 277° West 363 418 32,000  Level Albuquerque Center
09:21AM 33.4622 -112.8772 279° West 361 415 32,000  Level Albuquerque Center
09:22AM 33.4861 -112.9936 284° West 360 414 32,000  Level Albuquerque Center
09:23AM 33.5081 -113.1100 283° West 361 415 32,000  Level Albuquerque Center
09:24AM 33.5306 -113.2289 283° West 361 415 32,000  Level Albuquerque Center
09:25AM 33.5525 -113.3467 283° West 361 415 32,000  Level Albuquerque Center
09:26AM 33.5744 -113.4644 283° West 362 417 32,000  Level Albuquerque Center
09:27AM 33.5964 -113.5817 283° West 362 417 32,000  Level Albuquerque Center
09:28AM 33.6192 -113.6983 283° West 362 417 32,000  Level Albuquerque Center
09:29AM 33.6453 -113.8392 283° West 361 415 32,000  Level Albuquerque Center
09:30AM 33.6656 -113.9569 282° West 361 415 32,000  Level Albuquerque Center
09:31AM 33.6883 -114.0733 283° West 362 417 32,000  Level Albuquerque Center
09:32AM 33.7106 -114.1917 283° West 362 417 32,000  Level Albuquerque Center
09:33AM 33.7269 -114.2858 282° West 362 417 32,000  Level Los Angeles Center
09:34AM 33.7483 -114.4017 283° West 361 415 32,000  Level Los Angeles Center
09:35AM 33.7742 -114.5425 282° West 361 415 32,000  Level Los Angeles Center
09:37AM 33.7875 -114.7794 274° West 359 413 32,000  Level Los Angeles Center
09:38AM 33.7942 -114.8969 274° West 358 412 32,000 -120 Level Los Angeles Center
09:39AM 33.8003 -115.0147 274° West 356 410 31,800 -600 Descending Los Angeles Center
09:40AM 33.8072 -115.1333 274° West 356 410 30,800 -1,020 Descending Los Angeles Center
09:41AM 33.8122 -115.2492 273° West 353 406 29,800 -1,020 Descending Los Angeles Center
09:42AM 33.8203 -115.3653 275° West 352 405 28,800 -900 Descending Los Angeles Center
09:43AM 33.8267 -115.5078 273° West 358 412 28,000 -840 Descending Los Angeles Center
09:44AM 33.8314 -115.6258 273° West 356 410 27,200 -900 Descending Los Angeles Center
09:45AM 33.8375 -115.7442 274° West 356 410 26,200 -1,020 Descending Los Angeles Center
09:46AM 33.8436 -115.8614 274° West 356 410 25,200 -1,020 Descending Los Angeles Center
09:47AM 33.8489 -115.9783 273° West 355 409 24,200 -600 Descending Los Angeles Center
09:48AM 33.8553 -116.0908 274° West 347 399 24,000 -120 Descending Los Angeles Center
09:49AM 33.8597 -116.2033 273° West 342 394 24,000 -120 Level Los Angeles Center
09:50AM 33.8656 -116.3153 274° West 340 391 23,800 -1,260 Descending Los Angeles Center
09:51AM 33.8714 -116.4475 273° West 331 381 21,500 -2,100 Descending Los Angeles Center
09:52AM 33.8756 -116.5519 273° West 320 368 19,500 -1,920 Descending Los Angeles Center
09:53AM 33.8797 -116.6547 273° West 313 360 17,600 -1,920 Descending Los Angeles Center
09:54AM 33.8850 -116.7583 274° West 313 360 15,600 -1,860 Descending Los Angeles Center
09:55AM 33.8931 -116.8617 275° West 313 360 13,900 -1,860 Descending Los Angeles Center
09:56AM 33.9333 -116.9833 292° West 288 331 11,600 -2,280 Descending Southern California TRACON
09:57AM 33.9667 -117.0667 296° West 276 318 9,000 -2,400 Descending Southern California TRACON
09:58AM 33.9833 -117.1500 284° West 271 312 7,100 -1,320 Descending Southern California TRACON
10:00AM 34.0344 -117.2967 296° West 241 277 5,200 -840 Descending Los Angeles Center
10:01AM 34.0500 -117.3667 285° West 202 232 4,600 -840 Descending Southern California TRACON
10:02AM 34.0500 -117.4167 270° West 205 236 3,700 -960 Descending Southern California TRACON
10:04AM 34.0500 -117.5333 270° West 137 158 1,900 -840 Descending Southern California TRACON
10:05AM 34.0500 -117.5667 270° West 132 152 1,300 -720 Descending Southern California TRACON
10:08AM 34.0500 -117.6000 292° West  Level FlightAware Approximate
10:15AM 34.0560 -117.6012 292° West  Level Estimated